sensor_id;sensor_type;location;lat;lon;timestamp;temperature;humidity
4840;DHT22;2434;48.486;7.964;2023-02-22T00:00:55;7.00;54.70
4840;DHT22;2434;48.486;7.964;2023-02-22T00:03:29;7.00;55.50
4840;DHT22;2434;48.486;7.964;2023-02-22T00:06:00;7.00;54.70
4840;DHT22;2434;48.486;7.964;2023-02-22T00:08:31;6.90;54.90
4840;DHT22;2434;48.486;7.964;2023-02-22T00:11:02;6.80;55.80
4840;DHT22;2434;48.486;7.964;2023-02-22T00:13:35;6.70;56.20
4840;DHT22;2434;48.486;7.964;2023-02-22T00:16:06;6.60;56.60
4840;DHT22;2434;48.486;7.964;2023-02-22T00:18:34;6.50;57.00
4840;DHT22;2434;48.486;7.964;2023-02-22T00:21:04;6.50;57.30
4840;DHT22;2434;48.486;7.964;2023-02-22T00:23:39;6.40;57.40
4840;DHT22;2434;48.486;7.964;2023-02-22T00:26:09;6.40;57.30
4840;DHT22;2434;48.486;7.964;2023-02-22T00:28:39;6.40;56.80
4840;DHT22;2434;48.486;7.964;2023-02-22T00:31:09;6.40;56.80
4840;DHT22;2434;48.486;7.964;2023-02-22T00:33:38;6.50;56.50
4840;DHT22;2434;48.486;7.964;2023-02-22T00:36:07;6.50;56.20
4840;DHT22;2434;48.486;7.964;2023-02-22T00:38:35;6.50;56.00
4840;DHT22;2434;48.486;7.964;2023-02-22T00:41:04;6.40;56.30
4840;DHT22;2434;48.486;7.964;2023-02-22T00:43:33;6.40;55.70
4840;DHT22;2434;48.486;7.964;2023-02-22T00:46:02;6.40;55.70
4840;DHT22;2434;48.486;7.964;2023-02-22T00:48:32;6.40;56.00
4840;DHT22;2434;48.486;7.964;2023-02-22T00:51:00;6.30;56.20
4840;DHT22;2434;48.486;7.964;2023-02-22T00:53:28;6.30;56.30
4840;DHT22;2434;48.486;7.964;2023-02-22T00:55:57;6.20;57.30
4840;DHT22;2434;48.486;7.964;2023-02-22T00:58:26;6.10;57.80
4840;DHT22;2434;48.486;7.964;2023-02-22T01:00:56;6.00;57.80
4840;DHT22;2434;48.486;7.964;2023-02-22T01:03:25;6.00;58.70
4840;DHT22;2434;48.486;7.964;2023-02-22T01:05:57;6.00;58.50
4840;DHT22;2434;48.486;7.964;2023-02-22T01:08:25;5.90;58.70
4840;DHT22;2434;48.486;7.964;2023-02-22T01:10:56;5.90;59.00
4840;DHT22;2434;48.486;7.964;2023-02-22T01:13:25;5.80;59.50
4840;DHT22;2434;48.486;7.964;2023-02-22T01:15:53;5.80;59.50
4840;DHT22;2434;48.486;7.964;2023-02-22T01:18:22;5.80;59.50
4840;DHT22;2434;48.486;7.964;2023-02-22T01:20:51;5.80;59.50
4840;DHT22;2434;48.486;7.964;2023-02-22T01:23:21;5.80;59.30
4840;DHT22;2434;48.486;7.964;2023-02-22T01:25:49;5.80;59.30
4840;DHT22;2434;48.486;7.964;2023-02-22T01:28:17;5.80;58.90
4840;DHT22;2434;48.486;7.964;2023-02-22T01:30:48;5.90;58.80
4840;DHT22;2434;48.486;7.964;2023-02-22T01:33:17;5.90;58.20
4840;DHT22;2434;48.486;7.964;2023-02-22T01:35:45;5.90;58.10
4840;DHT22;2434;48.486;7.964;2023-02-22T01:38:14;5.90;57.70
4840;DHT22;2434;48.486;7.964;2023-02-22T01:40:48;6.00;58.10
4840;DHT22;2434;48.486;7.964;2023-02-22T01:43:20;6.00;56.80
4840;DHT22;2434;48.486;7.964;2023-02-22T01:46:00;6.00;57.00
4840;DHT22;2434;48.486;7.964;2023-02-22T01:48:35;5.90;56.60
4840;DHT22;2434;48.486;7.964;2023-02-22T01:51:09;5.90;56.70
4840;DHT22;2434;48.486;7.964;2023-02-22T01:53:42;5.90;56.90
4840;DHT22;2434;48.486;7.964;2023-02-22T01:56:14;5.80;57.40
4840;DHT22;2434;48.486;7.964;2023-02-22T01:58:46;5.70;57.90
4840;DHT22;2434;48.486;7.964;2023-02-22T02:01:18;5.70;58.20
4840;DHT22;2434;48.486;7.964;2023-02-22T02:03:49;5.60;58.20
4840;DHT22;2434;48.486;7.964;2023-02-22T02:06:19;5.60;58.20
4840;DHT22;2434;48.486;7.964;2023-02-22T02:08:54;5.50;58.50
4840;DHT22;2434;48.486;7.964;2023-02-22T02:11:27;5.50;58.30
4840;DHT22;2434;48.486;7.964;2023-02-22T02:13:58;5.60;58.10
4840;DHT22;2434;48.486;7.964;2023-02-22T02:16:34;5.50;58.00
4840;DHT22;2434;48.486;7.964;2023-02-22T02:19:09;5.50;58.00
4840;DHT22;2434;48.486;7.964;2023-02-22T02:27:45;5.30;59.70
4840;DHT22;2434;48.486;7.964;2023-02-22T02:30:40;5.30;60.60
4840;DHT22;2434;48.486;7.964;2023-02-22T02:33:14;5.20;60.90
4840;DHT22;2434;48.486;7.964;2023-02-22T02:35:49;5.20;60.90
4840;DHT22;2434;48.486;7.964;2023-02-22T02:38:29;5.10;60.90
4840;DHT22;2434;48.486;7.964;2023-02-22T02:41:04;5.10;61.20
4840;DHT22;2434;48.486;7.964;2023-02-22T02:43:39;5.00;60.90
4840;DHT22;2434;48.486;7.964;2023-02-22T02:46:13;5.00;60.80
4840;DHT22;2434;48.486;7.964;2023-02-22T02:48:48;5.00;61.60
4840;DHT22;2434;48.486;7.964;2023-02-22T02:51:18;5.00;61.00
4840;DHT22;2434;48.486;7.964;2023-02-22T02:53:50;5.00;61.90
4840;DHT22;2434;48.486;7.964;2023-02-22T02:56:19;5.00;61.10
4840;DHT22;2434;48.486;7.964;2023-02-22T02:58:50;4.90;61.00
4840;DHT22;2434;48.486;7.964;2023-02-22T03:01:34;5.00;61.10
4840;DHT22;2434;48.486;7.964;2023-02-22T03:04:34;5.00;60.50
4840;DHT22;2434;48.486;7.964;2023-02-22T03:10:16;5.10;59.70
4840;DHT22;2434;48.486;7.964;2023-02-22T03:12:54;5.10;59.50
4840;DHT22;2434;48.486;7.964;2023-02-22T03:15:33;5.10;59.50
4840;DHT22;2434;48.486;7.964;2023-02-22T03:18:08;5.00;59.50
4840;DHT22;2434;48.486;7.964;2023-02-22T03:20:49;5.00;59.60
4840;DHT22;2434;48.486;7.964;2023-02-22T03:23:23;5.00;60.10
4840;DHT22;2434;48.486;7.964;2023-02-22T03:25:56;4.90;61.10
4840;DHT22;2434;48.486;7.964;2023-02-22T03:28:28;4.80;61.90
4840;DHT22;2434;48.486;7.964;2023-02-22T03:31:00;4.80;62.20
4840;DHT22;2434;48.486;7.964;2023-02-22T03:33:33;4.70;62.60
4840;DHT22;2434;48.486;7.964;2023-02-22T03:36:10;4.70;62.70
4840;DHT22;2434;48.486;7.964;2023-02-22T03:38:40;4.70;62.90
4840;DHT22;2434;48.486;7.964;2023-02-22T03:41:13;4.60;62.70
4840;DHT22;2434;48.486;7.964;2023-02-22T03:43:46;4.60;63.10
4840;DHT22;2434;48.486;7.964;2023-02-22T03:46:16;4.60;63.30
4840;DHT22;2434;48.486;7.964;2023-02-22T03:48:51;4.50;64.00
4840;DHT22;2434;48.486;7.964;2023-02-22T03:51:23;4.50;64.20
4840;DHT22;2434;48.486;7.964;2023-02-22T03:53:56;4.50;64.40
4840;DHT22;2434;48.486;7.964;2023-02-22T03:56:32;4.50;64.40
4840;DHT22;2434;48.486;7.964;2023-02-22T03:59:04;4.50;64.60
4840;DHT22;2434;48.486;7.964;2023-02-22T04:01:34;4.50;64.80
4840;DHT22;2434;48.486;7.964;2023-02-22T04:04:03;4.50;64.40
4840;DHT22;2434;48.486;7.964;2023-02-22T04:06:33;4.60;64.10
4840;DHT22;2434;48.486;7.964;2023-02-22T04:09:02;4.60;63.50
4840;DHT22;2434;48.486;7.964;2023-02-22T04:11:30;4.70;63.60
4840;DHT22;2434;48.486;7.964;2023-02-22T04:13:59;4.70;63.00
4840;DHT22;2434;48.486;7.964;2023-02-22T04:16:27;4.70;62.60
4840;DHT22;2434;48.486;7.964;2023-02-22T04:18:55;4.80;62.50
4840;DHT22;2434;48.486;7.964;2023-02-22T04:21:23;4.80;62.70
4840;DHT22;2434;48.486;7.964;2023-02-22T04:23:54;4.80;62.30
4840;DHT22;2434;48.486;7.964;2023-02-22T04:26:22;4.80;62.20
4840;DHT22;2434;48.486;7.964;2023-02-22T04:28:54;4.80;61.80
4840;DHT22;2434;48.486;7.964;2023-02-22T04:31:24;4.90;61.90
4840;DHT22;2434;48.486;7.964;2023-02-22T04:33:55;4.90;61.60
4840;DHT22;2434;48.486;7.964;2023-02-22T04:36:27;4.80;61.70
4840;DHT22;2434;48.486;7.964;2023-02-22T04:39:00;4.90;62.30
4840;DHT22;2434;48.486;7.964;2023-02-22T04:41:29;4.90;61.60
4840;DHT22;2434;48.486;7.964;2023-02-22T04:43:59;4.90;60.60
4840;DHT22;2434;48.486;7.964;2023-02-22T04:46:28;4.90;60.80
4840;DHT22;2434;48.486;7.964;2023-02-22T04:48:58;4.80;60.80
4840;DHT22;2434;48.486;7.964;2023-02-22T04:51:29;4.70;61.00
4840;DHT22;2434;48.486;7.964;2023-02-22T04:54:21;4.70;61.30
4840;DHT22;2434;48.486;7.964;2023-02-22T04:56:50;4.60;61.50
4840;DHT22;2434;48.486;7.964;2023-02-22T04:59:19;4.60;61.70
4840;DHT22;2434;48.486;7.964;2023-02-22T05:01:53;4.60;61.70
4840;DHT22;2434;48.486;7.964;2023-02-22T05:04:21;4.60;61.40
4840;DHT22;2434;48.486;7.964;2023-02-22T05:06:49;4.60;61.20
4840;DHT22;2434;48.486;7.964;2023-02-22T05:09:22;4.60;61.20
4840;DHT22;2434;48.486;7.964;2023-02-22T05:11:50;4.60;60.80
4840;DHT22;2434;48.486;7.964;2023-02-22T05:14:18;4.60;60.90
4840;DHT22;2434;48.486;7.964;2023-02-22T05:16:47;4.60;61.20
4840;DHT22;2434;48.486;7.964;2023-02-22T05:19:16;4.60;61.20
4840;DHT22;2434;48.486;7.964;2023-02-22T05:21:44;4.50;61.90
4840;DHT22;2434;48.486;7.964;2023-02-22T05:24:12;4.60;60.90
4840;DHT22;2434;48.486;7.964;2023-02-22T05:26:43;4.50;61.00
4840;DHT22;2434;48.486;7.964;2023-02-22T05:29:12;4.50;61.30
4840;DHT22;2434;48.486;7.964;2023-02-22T05:31:40;4.50;61.30
4840;DHT22;2434;48.486;7.964;2023-02-22T05:34:09;4.50;61.20
4840;DHT22;2434;48.486;7.964;2023-02-22T05:36:37;4.50;62.20
4840;DHT22;2434;48.486;7.964;2023-02-22T05:39:05;4.50;61.70
4840;DHT22;2434;48.486;7.964;2023-02-22T05:41:33;4.50;60.60
4840;DHT22;2434;48.486;7.964;2023-02-22T05:44:03;4.50;60.40
4840;DHT22;2434;48.486;7.964;2023-02-22T05:46:31;4.50;60.00
4840;DHT22;2434;48.486;7.964;2023-02-22T05:49:00;4.50;60.20
4840;DHT22;2434;48.486;7.964;2023-02-22T05:51:28;4.50;60.70
4840;DHT22;2434;48.486;7.964;2023-02-22T05:53:56;4.40;60.10
4840;DHT22;2434;48.486;7.964;2023-02-22T05:56:26;4.40;61.20
4840;DHT22;2434;48.486;7.964;2023-02-22T05:58:54;4.40;60.40
4840;DHT22;2434;48.486;7.964;2023-02-22T06:01:24;4.40;60.80
4840;DHT22;2434;48.486;7.964;2023-02-22T06:03:53;4.30;62.40
4840;DHT22;2434;48.486;7.964;2023-02-22T06:06:21;4.30;62.30
4840;DHT22;2434;48.486;7.964;2023-02-22T06:08:49;4.30;61.70
4840;DHT22;2434;48.486;7.964;2023-02-22T06:11:17;4.30;61.50
4840;DHT22;2434;48.486;7.964;2023-02-22T06:13:50;4.30;61.60
4840;DHT22;2434;48.486;7.964;2023-02-22T06:16:19;4.30;61.50
4840;DHT22;2434;48.486;7.964;2023-02-22T06:18:49;4.30;61.30
4840;DHT22;2434;48.486;7.964;2023-02-22T06:21:17;4.20;61.50
4840;DHT22;2434;48.486;7.964;2023-02-22T06:23:45;4.30;61.10
4840;DHT22;2434;48.486;7.964;2023-02-22T06:26:15;4.30;61.10
4840;DHT22;2434;48.486;7.964;2023-02-22T06:28:44;4.30;61.60
4840;DHT22;2434;48.486;7.964;2023-02-22T06:31:12;4.30;61.00
4840;DHT22;2434;48.486;7.964;2023-02-22T06:33:41;4.30;60.50
4840;DHT22;2434;48.486;7.964;2023-02-22T06:36:10;4.30;61.00
4840;DHT22;2434;48.486;7.964;2023-02-22T06:38:39;4.30;61.00
4840;DHT22;2434;48.486;7.964;2023-02-22T06:41:07;4.20;60.70
4840;DHT22;2434;48.486;7.964;2023-02-22T06:43:36;4.20;60.90
4840;DHT22;2434;48.486;7.964;2023-02-22T06:46:06;4.20;61.00
4840;DHT22;2434;48.486;7.964;2023-02-22T06:48:36;4.20;61.20
4840;DHT22;2434;48.486;7.964;2023-02-22T06:51:07;4.10;61.70
4840;DHT22;2434;48.486;7.964;2023-02-22T06:53:37;4.10;62.50
4840;DHT22;2434;48.486;7.964;2023-02-22T06:56:05;4.10;62.20
4840;DHT22;2434;48.486;7.964;2023-02-22T06:58:34;4.10;62.70
4840;DHT22;2434;48.486;7.964;2023-02-22T07:01:02;4.00;63.20
4840;DHT22;2434;48.486;7.964;2023-02-22T07:03:33;4.00;63.40
4840;DHT22;2434;48.486;7.964;2023-02-22T07:06:02;4.00;63.90
4840;DHT22;2434;48.486;7.964;2023-02-22T07:08:31;4.00;64.00
4840;DHT22;2434;48.486;7.964;2023-02-22T07:11:00;4.00;64.50
4840;DHT22;2434;48.486;7.964;2023-02-22T07:13:28;3.90;65.20
4840;DHT22;2434;48.486;7.964;2023-02-22T07:15:56;3.90;65.80
4840;DHT22;2434;48.486;7.964;2023-02-22T07:18:26;3.90;66.20
4840;DHT22;2434;48.486;7.964;2023-02-22T07:20:56;3.90;66.60
4840;DHT22;2434;48.486;7.964;2023-02-22T07:23:25;3.90;67.40
4840;DHT22;2434;48.486;7.964;2023-02-22T07:25:53;3.90;68.20
4840;DHT22;2434;48.486;7.964;2023-02-22T07:28:23;3.90;68.60
4840;DHT22;2434;48.486;7.964;2023-02-22T07:30:52;4.00;68.50
4840;DHT22;2434;48.486;7.964;2023-02-22T07:33:20;4.00;68.80
4840;DHT22;2434;48.486;7.964;2023-02-22T07:35:49;4.00;69.10
4840;DHT22;2434;48.486;7.964;2023-02-22T07:38:19;4.10;69.00
4840;DHT22;2434;48.486;7.964;2023-02-22T07:40:48;4.10;69.80
4840;DHT22;2434;48.486;7.964;2023-02-22T07:43:19;4.20;70.60
4840;DHT22;2434;48.486;7.964;2023-02-22T07:45:51;4.10;71.60
4840;DHT22;2434;48.486;7.964;2023-02-22T07:48:21;4.10;73.60
4840;DHT22;2434;48.486;7.964;2023-02-22T07:50:50;4.10;77.40
4840;DHT22;2434;48.486;7.964;2023-02-22T07:53:20;4.10;78.70
4840;DHT22;2434;48.486;7.964;2023-02-22T07:55:49;4.10;80.00
4840;DHT22;2434;48.486;7.964;2023-02-22T07:58:20;4.20;80.70
4840;DHT22;2434;48.486;7.964;2023-02-22T08:00:50;4.20;82.60
4840;DHT22;2434;48.486;7.964;2023-02-22T08:03:20;4.20;82.10
4840;DHT22;2434;48.486;7.964;2023-02-22T08:05:51;4.20;81.40
4840;DHT22;2434;48.486;7.964;2023-02-22T08:08:19;4.30;81.30
4840;DHT22;2434;48.486;7.964;2023-02-22T08:10:48;4.30;81.00
4840;DHT22;2434;48.486;7.964;2023-02-22T08:13:17;4.30;80.50
4840;DHT22;2434;48.486;7.964;2023-02-22T08:15:48;4.40;81.10
4840;DHT22;2434;48.486;7.964;2023-02-22T08:18:19;4.50;80.80
4840;DHT22;2434;48.486;7.964;2023-02-22T08:20:49;4.70;78.10
4840;DHT22;2434;48.486;7.964;2023-02-22T08:23:22;4.80;77.80
4840;DHT22;2434;48.486;7.964;2023-02-22T08:25:52;4.90;77.80
4840;DHT22;2434;48.486;7.964;2023-02-22T08:28:22;5.00;77.10
4840;DHT22;2434;48.486;7.964;2023-02-22T08:30:51;5.10;76.10
4840;DHT22;2434;48.486;7.964;2023-02-22T08:33:21;5.20;76.50
4840;DHT22;2434;48.486;7.964;2023-02-22T08:35:49;5.40;77.10
4840;DHT22;2434;48.486;7.964;2023-02-22T08:38:20;5.50;77.20
4840;DHT22;2434;48.486;7.964;2023-02-22T08:40:49;5.60;77.00
4840;DHT22;2434;48.486;7.964;2023-02-22T08:43:19;5.60;77.00
4840;DHT22;2434;48.486;7.964;2023-02-22T08:45:48;5.80;78.10
4840;DHT22;2434;48.486;7.964;2023-02-22T08:48:17;5.90;76.00
4840;DHT22;2434;48.486;7.964;2023-02-22T08:50:47;6.10;76.80
4840;DHT22;2434;48.486;7.964;2023-02-22T08:53:15;6.20;76.70
4840;DHT22;2434;48.486;7.964;2023-02-22T08:55:44;6.30;74.70
4840;DHT22;2434;48.486;7.964;2023-02-22T08:58:13;6.20;72.80
4840;DHT22;2434;48.486;7.964;2023-02-22T09:00:41;6.00;73.50
4840;DHT22;2434;48.486;7.964;2023-02-22T09:03:12;6.20;74.60
4840;DHT22;2434;48.486;7.964;2023-02-22T09:05:41;6.20;75.20
4840;DHT22;2434;48.486;7.964;2023-02-22T09:08:11;6.20;76.80
4840;DHT22;2434;48.486;7.964;2023-02-22T09:10:39;6.20;78.70
4840;DHT22;2434;48.486;7.964;2023-02-22T09:13:08;6.30;80.40
4840;DHT22;2434;48.486;7.964;2023-02-22T09:15:36;6.40;80.20
4840;DHT22;2434;48.486;7.964;2023-02-22T09:18:07;6.50;76.90
4840;DHT22;2434;48.486;7.964;2023-02-22T09:20:36;6.60;79.10
4840;DHT22;2434;48.486;7.964;2023-02-22T09:23:05;6.80;79.40
4840;DHT22;2434;48.486;7.964;2023-02-22T09:25:37;6.80;77.60
4840;DHT22;2434;48.486;7.964;2023-02-22T09:28:06;7.00;76.30
4840;DHT22;2434;48.486;7.964;2023-02-22T09:30:35;7.00;75.50
4840;DHT22;2434;48.486;7.964;2023-02-22T09:33:05;7.10;72.30
4840;DHT22;2434;48.486;7.964;2023-02-22T09:35:37;7.20;72.50
4840;DHT22;2434;48.486;7.964;2023-02-22T09:38:09;7.30;70.60
4840;DHT22;2434;48.486;7.964;2023-02-22T09:40:41;7.50;68.50
4840;DHT22;2434;48.486;7.964;2023-02-22T09:43:23;7.60;66.70
4840;DHT22;2434;48.486;7.964;2023-02-22T09:46:04;7.80;66.10
4840;DHT22;2434;48.486;7.964;2023-02-22T09:48:50;7.90;67.30
4840;DHT22;2434;48.486;7.964;2023-02-22T09:51:26;8.20;64.30
4840;DHT22;2434;48.486;7.964;2023-02-22T09:53:59;8.50;63.10
4840;DHT22;2434;48.486;7.964;2023-02-22T09:56:30;8.80;60.20
4840;DHT22;2434;48.486;7.964;2023-02-22T09:59:02;9.10;60.20
4840;DHT22;2434;48.486;7.964;2023-02-22T10:01:38;9.40;55.90
4840;DHT22;2434;48.486;7.964;2023-02-22T10:04:11;9.60;55.00
4840;DHT22;2434;48.486;7.964;2023-02-22T10:07:02;9.70;54.60
4840;DHT22;2434;48.486;7.964;2023-02-22T10:09:35;9.80;53.00
4840;DHT22;2434;48.486;7.964;2023-02-22T10:12:14;9.90;52.00
4840;DHT22;2434;48.486;7.964;2023-02-22T10:15:04;10.00;50.20
4840;DHT22;2434;48.486;7.964;2023-02-22T10:17:44;10.10;51.40
4840;DHT22;2434;48.486;7.964;2023-02-22T10:20:21;10.10;51.20
4840;DHT22;2434;48.486;7.964;2023-02-22T10:23:07;10.30;50.60
4840;DHT22;2434;48.486;7.964;2023-02-22T10:25:38;10.30;50.70
4840;DHT22;2434;48.486;7.964;2023-02-22T10:28:16;10.50;50.30
4840;DHT22;2434;48.486;7.964;2023-02-22T10:30:49;10.60;49.00
4840;DHT22;2434;48.486;7.964;2023-02-22T10:33:22;10.70;48.70
4840;DHT22;2434;48.486;7.964;2023-02-22T10:35:53;10.70;48.50
4840;DHT22;2434;48.486;7.964;2023-02-22T10:38:23;10.70;49.10
4840;DHT22;2434;48.486;7.964;2023-02-22T10:40:55;10.80;49.60
4840;DHT22;2434;48.486;7.964;2023-02-22T10:43:25;10.90;49.20
4840;DHT22;2434;48.486;7.964;2023-02-22T10:45:55;11.10;48.30
4840;DHT22;2434;48.486;7.964;2023-02-22T10:48:27;11.10;47.10
4840;DHT22;2434;48.486;7.964;2023-02-22T10:50:59;11.20;47.60
4840;DHT22;2434;48.486;7.964;2023-02-22T10:53:29;11.40;47.50
4840;DHT22;2434;48.486;7.964;2023-02-22T10:56:22;11.60;47.60
4840;DHT22;2434;48.486;7.964;2023-02-22T10:58:54;11.40;45.10
4840;DHT22;2434;48.486;7.964;2023-02-22T11:01:32;11.20;44.30
4840;DHT22;2434;48.486;7.964;2023-02-22T11:04:09;11.40;46.40
4840;DHT22;2434;48.486;7.964;2023-02-22T11:06:40;11.80;47.80
4840;DHT22;2434;48.486;7.964;2023-02-22T11:09:11;12.00;44.40
4840;DHT22;2434;48.486;7.964;2023-02-22T11:11:42;12.20;43.90
4840;DHT22;2434;48.486;7.964;2023-02-22T11:14:24;11.90;42.20
4840;DHT22;2434;48.486;7.964;2023-02-22T11:16:54;11.90;42.00
4840;DHT22;2434;48.486;7.964;2023-02-22T11:19:25;11.80;42.50
4840;DHT22;2434;48.486;7.964;2023-02-22T11:21:57;11.80;43.70
4840;DHT22;2434;48.486;7.964;2023-02-22T11:24:26;12.10;44.40
4840;DHT22;2434;48.486;7.964;2023-02-22T11:27:23;12.40;43.60
4840;DHT22;2434;48.486;7.964;2023-02-22T11:29:55;12.80;42.70
4840;DHT22;2434;48.486;7.964;2023-02-22T11:32:26;12.90;40.90
4840;DHT22;2434;48.486;7.964;2023-02-22T11:35:22;13.10;41.50
4840;DHT22;2434;48.486;7.964;2023-02-22T11:38:10;13.40;39.40
4840;DHT22;2434;48.486;7.964;2023-02-22T11:40:38;13.60;39.10
4840;DHT22;2434;48.486;7.964;2023-02-22T11:43:08;13.70;40.70
4840;DHT22;2434;48.486;7.964;2023-02-22T11:45:38;13.80;38.60
4840;DHT22;2434;48.486;7.964;2023-02-22T11:48:22;13.80;41.00
4840;DHT22;2434;48.486;7.964;2023-02-22T11:51:02;13.70;43.50
4840;DHT22;2434;48.486;7.964;2023-02-22T11:56:30;13.60;43.70
4840;DHT22;2434;48.486;7.964;2023-02-22T11:59:12;13.60;43.60
4840;DHT22;2434;48.486;7.964;2023-02-22T12:01:47;13.60;45.10
4840;DHT22;2434;48.486;7.964;2023-02-22T12:04:45;13.50;45.50
4840;DHT22;2434;48.486;7.964;2023-02-22T12:07:31;13.50;46.00
4840;DHT22;2434;48.486;7.964;2023-02-22T12:10:07;13.40;46.60
4840;DHT22;2434;48.486;7.964;2023-02-22T12:12:48;13.40;47.10
4840;DHT22;2434;48.486;7.964;2023-02-22T12:15:27;13.40;47.20
4840;DHT22;2434;48.486;7.964;2023-02-22T12:18:02;13.40;47.50
4840;DHT22;2434;48.486;7.964;2023-02-22T12:20:37;13.40;47.70
4840;DHT22;2434;48.486;7.964;2023-02-22T12:23:16;13.40;48.00
4840;DHT22;2434;48.486;7.964;2023-02-22T12:25:54;13.30;49.40
4840;DHT22;2434;48.486;7.964;2023-02-22T12:28:29;13.30;48.80
4840;DHT22;2434;48.486;7.964;2023-02-22T12:31:07;13.20;49.10
4840;DHT22;2434;48.486;7.964;2023-02-22T12:33:45;13.10;48.50
4840;DHT22;2434;48.486;7.964;2023-02-22T12:36:19;13.10;48.30
4840;DHT22;2434;48.486;7.964;2023-02-22T12:38:53;13.10;49.30
4840;DHT22;2434;48.486;7.964;2023-02-22T12:41:29;13.10;48.60
4840;DHT22;2434;48.486;7.964;2023-02-22T12:44:01;13.10;48.20
4840;DHT22;2434;48.486;7.964;2023-02-22T12:46:35;12.90;48.30
4840;DHT22;2434;48.486;7.964;2023-02-22T12:49:11;13.00;49.30
4840;DHT22;2434;48.486;7.964;2023-02-22T12:51:43;13.00;49.10
4840;DHT22;2434;48.486;7.964;2023-02-22T12:54:21;13.00;49.40
4840;DHT22;2434;48.486;7.964;2023-02-22T12:56:55;13.00;50.60
4840;DHT22;2434;48.486;7.964;2023-02-22T12:59:31;13.10;49.90
4840;DHT22;2434;48.486;7.964;2023-02-22T13:02:07;13.20;49.20
4840;DHT22;2434;48.486;7.964;2023-02-22T13:04:38;13.30;49.60
4840;DHT22;2434;48.486;7.964;2023-02-22T13:07:17;13.40;49.40
4840;DHT22;2434;48.486;7.964;2023-02-22T13:10:15;13.40;49.00
4840;DHT22;2434;48.486;7.964;2023-02-22T13:12:53;13.50;49.40
4840;DHT22;2434;48.486;7.964;2023-02-22T13:15:29;13.50;49.10
4840;DHT22;2434;48.486;7.964;2023-02-22T13:18:07;13.60;48.60
4840;DHT22;2434;48.486;7.964;2023-02-22T13:20:42;13.60;48.30
4840;DHT22;2434;48.486;7.964;2023-02-22T13:23:19;13.70;48.50
4840;DHT22;2434;48.486;7.964;2023-02-22T13:25:56;13.70;48.30
4840;DHT22;2434;48.486;7.964;2023-02-22T13:28:32;13.80;48.80
4840;DHT22;2434;48.486;7.964;2023-02-22T13:31:21;13.90;47.90
4840;DHT22;2434;48.486;7.964;2023-02-22T13:34:04;13.90;48.00
4840;DHT22;2434;48.486;7.964;2023-02-22T13:36:38;14.00;47.40
4840;DHT22;2434;48.486;7.964;2023-02-22T13:39:48;14.10;47.30
4840;DHT22;2434;48.486;7.964;2023-02-22T13:42:40;14.20;47.50
4840;DHT22;2434;48.486;7.964;2023-02-22T13:45:34;14.20;48.30
4840;DHT22;2434;48.486;7.964;2023-02-22T13:48:23;14.30;48.30
4840;DHT22;2434;48.486;7.964;2023-02-22T13:51:09;14.30;47.30
4840;DHT22;2434;48.486;7.964;2023-02-22T13:53:46;14.20;46.40
4840;DHT22;2434;48.486;7.964;2023-02-22T13:56:16;14.30;47.30
4840;DHT22;2434;48.486;7.964;2023-02-22T13:58:50;14.20;46.70
4840;DHT22;2434;48.486;7.964;2023-02-22T14:01:37;14.20;46.00
4840;DHT22;2434;48.486;7.964;2023-02-22T14:04:32;14.20;46.60
4840;DHT22;2434;48.486;7.964;2023-02-22T14:07:04;14.30;46.90
4840;DHT22;2434;48.486;7.964;2023-02-22T14:09:52;14.20;46.40
4840;DHT22;2434;48.486;7.964;2023-02-22T14:12:47;14.20;46.60
4840;DHT22;2434;48.486;7.964;2023-02-22T14:15:18;14.20;46.30
4840;DHT22;2434;48.486;7.964;2023-02-22T14:17:58;14.30;46.40
4840;DHT22;2434;48.486;7.964;2023-02-22T14:20:28;14.30;46.00
4840;DHT22;2434;48.486;7.964;2023-02-22T14:23:26;14.20;45.90
4840;DHT22;2434;48.486;7.964;2023-02-22T14:25:56;14.20;46.20
4840;DHT22;2434;48.486;7.964;2023-02-22T14:28:47;14.20;45.90
4840;DHT22;2434;48.486;7.964;2023-02-22T14:31:20;14.20;46.10
4840;DHT22;2434;48.486;7.964;2023-02-22T14:34:06;14.30;46.00
4840;DHT22;2434;48.486;7.964;2023-02-22T14:36:46;14.30;46.90
4840;DHT22;2434;48.486;7.964;2023-02-22T14:39:24;14.30;46.10
4840;DHT22;2434;48.486;7.964;2023-02-22T14:42:03;14.20;46.30
4840;DHT22;2434;48.486;7.964;2023-02-22T14:44:37;14.20;46.40
4840;DHT22;2434;48.486;7.964;2023-02-22T14:47:14;14.20;46.40
4840;DHT22;2434;48.486;7.964;2023-02-22T14:49:48;14.20;46.50
4840;DHT22;2434;48.486;7.964;2023-02-22T14:52:22;14.20;46.30
4840;DHT22;2434;48.486;7.964;2023-02-22T14:54:56;14.20;46.30
4840;DHT22;2434;48.486;7.964;2023-02-22T14:57:29;14.10;45.90
4840;DHT22;2434;48.486;7.964;2023-02-22T15:00:11;14.20;46.50
4840;DHT22;2434;48.486;7.964;2023-02-22T15:02:48;14.20;46.20
4840;DHT22;2434;48.486;7.964;2023-02-22T15:05:19;14.20;46.50
4840;DHT22;2434;48.486;7.964;2023-02-22T15:07:53;14.20;47.20
4840;DHT22;2434;48.486;7.964;2023-02-22T15:10:30;14.20;46.00
4840;DHT22;2434;48.486;7.964;2023-02-22T15:13:00;14.20;46.40
4840;DHT22;2434;48.486;7.964;2023-02-22T15:15:41;14.20;46.90
4840;DHT22;2434;48.486;7.964;2023-02-22T15:18:20;14.10;46.30
4840;DHT22;2434;48.486;7.964;2023-02-22T15:20:52;14.10;46.30
4840;DHT22;2434;48.486;7.964;2023-02-22T15:23:25;14.10;47.00
4840;DHT22;2434;48.486;7.964;2023-02-22T15:25:56;14.10;46.50
4840;DHT22;2434;48.486;7.964;2023-02-22T15:28:27;14.00;46.90
4840;DHT22;2434;48.486;7.964;2023-02-22T15:31:16;14.10;46.70
4840;DHT22;2434;48.486;7.964;2023-02-22T15:33:47;14.10;46.50
4840;DHT22;2434;48.486;7.964;2023-02-22T15:36:19;14.00;46.70
4840;DHT22;2434;48.486;7.964;2023-02-22T15:38:50;14.00;46.50
4840;DHT22;2434;48.486;7.964;2023-02-22T15:41:23;14.00;45.80
4840;DHT22;2434;48.486;7.964;2023-02-22T15:44:02;14.00;45.80
4840;DHT22;2434;48.486;7.964;2023-02-22T15:46:47;13.90;45.30
4840;DHT22;2434;48.486;7.964;2023-02-22T15:49:22;13.90;46.10
4840;DHT22;2434;48.486;7.964;2023-02-22T15:52:06;14.00;46.10
4840;DHT22;2434;48.486;7.964;2023-02-22T15:54:41;13.90;46.00
4840;DHT22;2434;48.486;7.964;2023-02-22T15:57:14;13.80;45.40
4840;DHT22;2434;48.486;7.964;2023-02-22T15:59:46;13.80;45.70
4840;DHT22;2434;48.486;7.964;2023-02-22T16:02:28;13.90;45.70
4840;DHT22;2434;48.486;7.964;2023-02-22T16:05:03;13.90;45.80
4840;DHT22;2434;48.486;7.964;2023-02-22T16:07:36;13.90;45.70
4840;DHT22;2434;48.486;7.964;2023-02-22T16:10:18;13.90;45.80
4840;DHT22;2434;48.486;7.964;2023-02-22T16:12:47;13.90;46.60
4840;DHT22;2434;48.486;7.964;2023-02-22T16:15:17;13.90;46.90
4840;DHT22;2434;48.486;7.964;2023-02-22T16:17:45;13.80;46.10
4840;DHT22;2434;48.486;7.964;2023-02-22T16:20:33;13.80;46.20
4840;DHT22;2434;48.486;7.964;2023-02-22T16:23:21;13.80;46.40
4840;DHT22;2434;48.486;7.964;2023-02-22T16:26:22;13.90;46.00
4840;DHT22;2434;48.486;7.964;2023-02-22T16:28:52;13.80;46.10
4840;DHT22;2434;48.486;7.964;2023-02-22T16:31:26;13.80;46.00
4840;DHT22;2434;48.486;7.964;2023-02-22T16:33:54;13.70;46.60
4840;DHT22;2434;48.486;7.964;2023-02-22T16:36:36;13.60;47.00
4840;DHT22;2434;48.486;7.964;2023-02-22T16:39:06;13.60;47.50
4840;DHT22;2434;48.486;7.964;2023-02-22T16:41:34;13.60;47.60
4840;DHT22;2434;48.486;7.964;2023-02-22T16:44:03;13.60;47.70
4840;DHT22;2434;48.486;7.964;2023-02-22T16:46:33;13.50;47.90
4840;DHT22;2434;48.486;7.964;2023-02-22T16:49:04;13.40;48.20
4840;DHT22;2434;48.486;7.964;2023-02-22T16:51:39;13.50;48.40
4840;DHT22;2434;48.486;7.964;2023-02-22T16:54:10;13.50;48.50
4840;DHT22;2434;48.486;7.964;2023-02-22T16:56:39;13.50;48.80
4840;DHT22;2434;48.486;7.964;2023-02-22T16:59:10;13.40;48.90
4840;DHT22;2434;48.486;7.964;2023-02-22T17:01:39;13.30;49.30
4840;DHT22;2434;48.486;7.964;2023-02-22T17:04:13;13.30;50.40